createdAt,value
2018-05-25T00:02:10.932Z,2.87
2018-05-25T00:04:37.357Z,3.20
2018-05-25T00:07:03.783Z,3.13
2018-05-25T00:09:30.117Z,3.30
2018-05-25T00:11:56.500Z,3.40
2018-05-25T00:14:22.856Z,3.30
2018-05-25T00:16:49.221Z,3.40
2018-05-25T00:19:15.730Z,3.30
2018-05-25T00:21:42.131Z,2.90
2018-05-25T00:24:08.620Z,2.97
2018-05-25T00:26:34.991Z,3.30
2018-05-25T00:29:01.363Z,3.47
2018-05-25T00:31:27.687Z,3.10
2018-05-25T00:33:54.200Z,3.37
2018-05-25T00:36:20.580Z,3.17
2018-05-25T00:38:46.943Z,3.07
2018-05-25T00:41:13.268Z,2.80
2018-05-25T00:43:39.597Z,2.73
2018-05-25T00:46:05.908Z,2.70
2018-05-25T00:48:32.236Z,2.83
2018-05-25T00:50:58.555Z,2.87
2018-05-25T00:53:24.927Z,2.67
2018-05-25T00:58:23.704Z,2.90
2018-05-25T01:00:50.180Z,3.17
2018-05-25T01:03:16.728Z,2.70
2018-05-25T01:05:43.040Z,3.00
2018-05-25T01:08:09.461Z,3.00
2018-05-25T01:10:35.901Z,3.43
2018-05-25T01:13:02.404Z,3.20
2018-05-25T01:15:28.871Z,2.93
2018-05-25T01:17:55.187Z,3.43
2018-05-25T01:20:21.511Z,2.90
2018-05-25T01:22:47.970Z,2.97
2018-05-25T01:25:14.348Z,2.70
2018-05-25T01:27:40.660Z,3.10
2018-05-25T01:30:06.984Z,2.90
2018-05-25T01:32:33.373Z,3.80
2018-05-25T01:34:59.741Z,2.83
2018-05-25T01:37:26.106Z,2.70
2018-05-25T01:39:52.429Z,2.60
2018-05-25T01:42:18.752Z,2.83
2018-05-25T01:44:45.085Z,3.23
2018-05-25T01:47:11.525Z,3.20
2018-05-25T01:49:37.874Z,2.93
2018-05-25T01:52:04.313Z,3.07
2018-05-25T01:54:30.648Z,2.90
2018-05-25T01:56:57.009Z,2.80
2018-05-25T01:59:23.360Z,2.80
2018-05-25T02:01:49.696Z,2.70
2018-05-25T02:04:16.028Z,2.63
2018-05-25T02:06:42.408Z,2.93
2018-05-25T02:09:08.725Z,2.53
2018-05-25T02:11:35.160Z,2.70
2018-05-25T02:14:01.561Z,2.60
2018-05-25T02:16:27.887Z,2.77
2018-05-25T02:18:54.272Z,2.67
2018-05-25T02:21:20.606Z,2.73
2018-05-25T02:23:46.939Z,2.83
2018-05-25T02:26:13.262Z,2.50
2018-05-25T02:28:39.582Z,3.10
2018-05-25T02:31:05.996Z,2.90
2018-05-25T02:33:32.437Z,2.90
2018-05-25T02:35:58.804Z,2.93
2018-05-25T02:38:25.136Z,2.93
2018-05-25T02:40:51.469Z,2.40
2018-05-25T02:43:17.833Z,2.60
2018-05-25T02:45:44.291Z,3.00
2018-05-25T02:48:10.623Z,3.20
2018-05-25T02:50:36.985Z,2.80
2018-05-25T02:53:03.369Z,2.30
2018-05-25T02:55:29.698Z,2.93
2018-05-25T02:57:56.015Z,2.80
2018-05-25T03:00:22.335Z,2.63
2018-05-25T03:02:48.705Z,2.90
2018-05-25T03:05:15.055Z,2.40
2018-05-25T03:07:41.580Z,2.90
2018-05-25T03:10:08.036Z,2.43
2018-05-25T03:12:34.378Z,2.73
2018-05-25T03:15:00.718Z,2.63
2018-05-25T03:17:27.052Z,3.23
2018-05-25T03:19:53.393Z,2.67
2018-05-25T03:22:19.755Z,2.53
2018-05-25T03:24:46.149Z,2.77
2018-05-25T03:27:12.476Z,3.03
2018-05-25T03:29:38.839Z,2.67
2018-05-25T03:32:05.255Z,2.40
2018-05-25T03:34:31.765Z,2.47
2018-05-25T03:36:58.117Z,4.50
2018-05-25T03:39:24.552Z,2.33
2018-05-25T03:41:50.875Z,2.70
2018-05-25T03:44:17.205Z,2.50
2018-05-25T03:46:43.523Z,3.07
2018-05-25T03:49:09.908Z,2.60
2018-05-25T03:51:36.269Z,2.77
2018-05-25T03:54:02.792Z,2.53
2018-05-25T03:56:29.164Z,2.40
2018-05-25T03:58:55.480Z,2.90
2018-05-25T04:01:21.829Z,10.80
2018-05-25T04:03:48.161Z,11.70
2018-05-25T04:06:14.543Z,10.40
2018-05-25T04:08:40.921Z,6.63
2018-05-25T04:11:07.259Z,9.47
2018-05-25T04:13:33.717Z,2.70
2018-05-25T04:16:00.069Z,2.40
2018-05-25T04:18:26.406Z,3.17
2018-05-25T04:20:52.732Z,3.50
2018-05-25T04:23:19.061Z,5.70
2018-05-25T04:25:45.412Z,6.40
2018-05-25T04:28:11.773Z,7.03
2018-05-25T04:30:38.097Z,18.70
2018-05-25T04:33:04.569Z,19.13
2018-05-25T04:35:30.931Z,9.83
2018-05-25T04:37:57.257Z,13.53
2018-05-25T04:40:23.625Z,20.03
2018-05-25T04:42:49.999Z,10.10
2018-05-25T04:45:16.356Z,12.00
2018-05-25T04:47:42.793Z,29.93
2018-05-25T04:50:09.217Z,13.17
2018-05-25T04:52:35.596Z,15.20
2018-05-25T04:55:02.055Z,15.10
2018-05-25T04:57:28.477Z,17.70
2018-05-25T04:59:54.816Z,16.77
2018-05-25T05:02:21.152Z,12.10
2018-05-25T05:04:47.473Z,9.50
2018-05-25T05:07:13.859Z,15.30
2018-05-25T05:09:40.175Z,9.17
2018-05-25T05:12:06.595Z,5.47
2018-05-25T05:14:32.954Z,20.63
2018-05-25T05:16:59.309Z,17.53
2018-05-25T05:19:25.641Z,5.00
2018-05-25T05:21:51.973Z,10.23
2018-05-25T05:24:18.310Z,6.30
2018-05-25T05:26:44.679Z,7.33
2018-05-25T05:29:11.098Z,8.40
2018-05-25T05:31:37.414Z,8.00
2018-05-25T05:34:03.780Z,4.93
2018-05-25T05:36:30.221Z,4.63
2018-05-25T05:38:56.635Z,7.97
2018-05-25T05:41:24.126Z,4.20
2018-05-25T05:43:51.293Z,2.87
2018-05-25T05:46:17.627Z,6.87
2018-05-25T05:48:43.949Z,5.70
2018-05-25T05:51:10.284Z,8.73
2018-05-25T05:53:36.664Z,4.90
2018-05-25T05:56:03.049Z,4.43
2018-05-25T05:58:29.378Z,5.70
2018-05-25T06:00:55.707Z,5.20
2018-05-25T06:03:22.044Z,4.13
2018-05-25T06:05:48.405Z,9.33
2018-05-25T06:08:14.771Z,8.30
2018-05-25T06:10:41.108Z,4.73
2018-05-25T06:13:07.440Z,6.67
2018-05-25T06:15:33.781Z,5.63
2018-05-25T06:18:00.319Z,7.70
2018-05-25T06:20:26.730Z,3.90
2018-05-25T06:22:53.107Z,3.10
2018-05-25T06:25:19.689Z,7.50
2018-05-25T06:27:46.140Z,7.10
2018-05-25T06:30:12.477Z,4.73
2018-05-25T06:32:38.910Z,5.67
2018-05-25T06:35:05.251Z,6.40
2018-05-25T06:37:31.619Z,3.80
2018-05-25T06:39:58.008Z,6.60
2018-05-25T06:42:24.425Z,7.90
2018-05-25T06:44:50.826Z,6.27
2018-05-25T06:47:17.241Z,4.17
2018-05-25T06:49:43.618Z,8.43
2018-05-25T06:52:10.014Z,10.23
2018-05-25T06:54:36.373Z,4.53
2018-05-25T06:57:02.742Z,4.80
2018-05-25T06:59:29.317Z,6.43
2018-05-25T07:01:55.683Z,6.47
2018-05-25T07:04:22.087Z,7.73
2018-05-25T07:06:48.446Z,12.43
2018-05-25T07:09:14.788Z,4.70
2018-05-25T07:11:41.151Z,8.77
2018-05-25T07:14:07.543Z,5.73
2018-05-25T07:16:33.946Z,4.70
2018-05-25T07:19:00.325Z,12.80
2018-05-25T07:21:26.675Z,6.20
2018-05-25T07:23:53.015Z,7.73
2018-05-25T07:26:19.344Z,5.63
2018-05-25T07:28:45.785Z,8.10
2018-05-25T07:31:12.145Z,7.00
2018-05-25T07:33:38.640Z,9.20
2018-05-25T07:36:05.015Z,6.13
2018-05-25T07:38:31.429Z,7.03
2018-05-25T07:40:57.761Z,4.30
2018-05-25T07:43:24.089Z,8.40
2018-05-25T07:45:50.460Z,9.90
2018-05-25T07:48:16.916Z,6.90
2018-05-25T07:50:43.356Z,10.97
2018-05-25T07:53:09.735Z,6.67
2018-05-25T07:55:36.094Z,7.13
2018-05-25T07:58:02.588Z,5.10
2018-05-25T08:00:28.963Z,13.70
2018-05-25T08:02:55.474Z,9.03
2018-05-25T08:05:21.814Z,6.77
2018-05-25T08:07:48.188Z,5.70
2018-05-25T08:10:14.532Z,5.77
2018-05-25T08:12:41.000Z,5.37
2018-05-25T08:15:07.410Z,7.33
2018-05-25T08:17:33.834Z,6.13
2018-05-25T08:20:00.242Z,6.67
2018-05-25T08:22:26.674Z,9.60
2018-05-25T08:24:53.032Z,4.07
2018-05-25T08:27:19.404Z,7.83
2018-05-25T08:29:45.933Z,7.80
2018-05-25T08:32:12.306Z,6.57
2018-05-25T08:34:38.759Z,9.30
2018-05-25T08:37:05.124Z,5.30
2018-05-25T08:39:31.542Z,6.00
2018-05-25T08:41:57.949Z,7.40
2018-05-25T08:44:24.366Z,5.00
2018-05-25T08:46:50.748Z,3.87
2018-05-25T08:49:17.144Z,6.00
2018-05-25T08:51:43.503Z,4.57
2018-05-25T08:54:09.938Z,4.23
2018-05-25T08:56:36.344Z,5.60
2018-05-25T08:59:02.754Z,5.50
2018-05-25T09:01:29.285Z,8.33
2018-05-25T09:03:55.617Z,8.63
2018-05-25T09:06:22.004Z,6.40
2018-05-25T09:08:48.333Z,7.77
2018-05-25T09:11:14.727Z,4.40
2018-05-25T09:13:41.062Z,5.37
2018-05-25T09:16:07.406Z,6.53
2018-05-25T09:18:33.898Z,6.70
2018-05-25T09:21:00.296Z,6.70
2018-05-25T09:23:26.692Z,4.53
2018-05-25T09:25:53.173Z,7.33
2018-05-25T09:28:19.516Z,5.67
2018-05-25T09:30:45.995Z,4.00
2018-05-25T09:33:12.383Z,4.33
2018-05-25T09:35:38.720Z,8.70
2018-05-25T09:38:05.089Z,12.67
2018-05-25T09:40:31.575Z,6.77
2018-05-25T09:42:57.950Z,5.20
2018-05-25T09:45:24.292Z,4.40
2018-05-25T09:47:50.662Z,4.23
2018-05-25T09:50:17.120Z,5.43
2018-05-25T09:52:43.473Z,9.00
2018-05-25T09:55:09.842Z,6.67
2018-05-25T09:57:36.245Z,7.10
2018-05-25T10:00:02.695Z,3.87
2018-05-25T10:02:29.078Z,6.60
2018-05-25T10:04:55.464Z,5.57
2018-05-25T10:07:21.857Z,5.53
2018-05-25T10:09:48.193Z,8.90
2018-05-25T10:12:14.732Z,5.07
2018-05-25T10:14:41.221Z,14.60
2018-05-25T10:17:07.654Z,8.23
2018-05-25T10:19:34.155Z,4.87
2018-05-25T10:22:00.514Z,3.97
2018-05-25T10:24:26.968Z,5.50
2018-05-25T10:26:53.326Z,8.30
2018-05-25T10:29:19.721Z,4.73
2018-05-25T10:31:46.167Z,7.63
2018-05-25T10:34:12.590Z,5.63
2018-05-25T10:36:38.979Z,4.57
2018-05-25T10:39:05.320Z,11.83
2018-05-25T10:41:31.702Z,4.23
2018-05-25T10:43:58.096Z,5.57
2018-05-25T10:46:24.430Z,5.17
2018-05-25T10:48:50.799Z,4.90
2018-05-25T10:51:17.281Z,3.60
2018-05-25T10:53:43.632Z,4.57
2018-05-25T10:56:10.029Z,11.37
2018-05-25T10:58:36.396Z,6.83
2018-05-25T11:01:02.819Z,6.57
2018-05-25T11:03:29.228Z,5.00
2018-05-25T11:05:55.613Z,7.63
2018-05-25T11:08:22.050Z,8.77
2018-05-25T11:10:48.398Z,5.83
2018-05-25T11:13:14.780Z,5.23
2018-05-25T11:15:41.120Z,5.97
2018-05-25T11:18:07.464Z,4.70
2018-05-25T11:20:33.842Z,6.80
2018-05-25T11:23:00.207Z,4.37
2018-05-25T11:25:26.608Z,4.03
2018-05-25T11:27:53.088Z,4.80
2018-05-25T11:30:19.488Z,6.50
2018-05-25T11:32:45.901Z,5.87
2018-05-25T11:35:12.285Z,4.73
2018-05-25T11:37:38.666Z,6.30
2018-05-25T11:40:05.001Z,6.83
2018-05-25T11:42:31.627Z,14.30
2018-05-25T11:44:58.053Z,7.07
2018-05-25T11:47:24.461Z,4.20
2018-05-25T11:49:50.836Z,4.53
2018-05-25T11:52:17.324Z,4.33
2018-05-25T11:54:43.682Z,4.90
2018-05-25T11:57:10.043Z,5.87
2018-05-25T11:59:36.571Z,4.60
2018-05-25T12:02:03.029Z,6.10
2018-05-25T12:04:29.408Z,9.03
2018-05-25T12:06:55.876Z,6.33
2018-05-25T12:09:22.232Z,10.60
2018-05-25T12:11:48.723Z,7.93
2018-05-25T12:14:15.060Z,9.10
2018-05-25T12:16:41.506Z,4.20
2018-05-25T12:19:07.881Z,5.33
2018-05-25T12:21:34.295Z,6.40
2018-05-25T12:24:00.780Z,5.10
2018-05-25T12:26:27.180Z,11.73
2018-05-25T12:28:53.644Z,5.93
2018-05-25T12:31:20.188Z,9.10
2018-05-25T12:33:46.614Z,4.10
2018-05-25T12:36:13.022Z,4.10
2018-05-25T12:38:39.386Z,5.10
2018-05-25T12:41:05.896Z,3.60
2018-05-25T12:43:32.304Z,3.73
2018-05-25T12:45:58.813Z,3.20
2018-05-25T12:48:25.216Z,4.07
2018-05-25T12:50:51.607Z,4.53
2018-05-25T12:53:18.009Z,4.23
2018-05-25T12:55:44.412Z,6.57
2018-05-25T12:58:10.801Z,4.70
2018-05-25T13:00:37.247Z,4.80
2018-05-25T13:03:03.593Z,4.03
2018-05-25T13:05:30.035Z,3.60
2018-05-25T13:07:56.416Z,4.83
2018-05-25T13:10:22.837Z,5.83
2018-05-25T13:12:49.268Z,3.50
2018-05-25T13:15:15.637Z,6.80
2018-05-25T13:17:42.000Z,4.67
2018-05-25T13:20:08.368Z,4.27
2018-05-25T13:22:34.727Z,7.73
2018-05-25T13:25:01.105Z,3.67
2018-05-25T13:27:27.559Z,4.40
2018-05-25T13:29:53.927Z,3.90
2018-05-25T13:32:21.767Z,5.27
2018-05-25T13:34:48.211Z,3.07
2018-05-25T13:37:14.592Z,3.43
2018-05-25T13:39:40.990Z,5.43
2018-05-25T13:42:07.384Z,2.73
2018-05-25T13:44:33.863Z,5.07
2018-05-25T13:47:00.211Z,3.20
2018-05-25T13:49:26.556Z,3.73
2018-05-25T13:51:52.908Z,4.30
2018-05-25T13:54:19.293Z,4.50
2018-05-25T13:56:45.646Z,3.40
2018-05-25T13:59:12.044Z,4.23
2018-05-25T14:01:38.525Z,8.70
2018-05-25T14:04:04.873Z,6.33
2018-05-25T14:06:31.218Z,4.17
2018-05-25T14:08:57.596Z,7.57
2018-05-25T14:11:23.958Z,4.40
2018-05-25T14:13:50.404Z,3.80
2018-05-25T14:16:16.841Z,2.50
2018-05-25T14:18:43.203Z,4.00
2018-05-25T14:21:09.559Z,3.90
2018-05-25T14:23:35.913Z,3.70
2018-05-25T14:26:02.256Z,2.53
2018-05-25T14:28:28.628Z,4.37
2018-05-25T14:30:55.119Z,4.50
2018-05-25T14:33:21.537Z,4.40
2018-05-25T14:35:47.953Z,9.33
2018-05-25T14:38:14.285Z,4.20
2018-05-25T14:40:40.713Z,2.43
2018-05-25T14:43:07.099Z,2.70
2018-05-25T14:45:33.529Z,3.27
2018-05-25T14:47:59.918Z,6.53
2018-05-25T14:50:26.261Z,7.27
2018-05-25T14:52:52.673Z,5.17
2018-05-25T14:55:19.104Z,3.87
2018-05-25T14:57:45.431Z,3.67
2018-05-25T15:00:11.756Z,2.43
2018-05-25T15:02:38.106Z,3.63
2018-05-25T15:05:04.449Z,2.77
2018-05-25T15:07:30.829Z,2.43
2018-05-25T15:09:57.200Z,3.20
2018-05-25T15:12:23.533Z,2.63
2018-05-25T15:14:49.890Z,2.80
2018-05-25T15:17:16.394Z,2.10
2018-05-25T15:19:42.732Z,3.33
2018-05-25T15:22:09.071Z,3.57
2018-05-25T15:24:35.478Z,2.43
2018-05-25T15:27:01.841Z,3.10
2018-05-25T15:29:28.260Z,2.30
2018-05-25T15:31:54.640Z,3.87
2018-05-25T15:34:20.943Z,2.23
2018-05-25T15:36:47.321Z,2.20
2018-05-25T15:39:13.659Z,2.53
2018-05-25T15:41:40.129Z,2.83
2018-05-25T15:44:06.476Z,2.63
2018-05-25T15:46:32.848Z,3.40
2018-05-25T15:48:59.216Z,4.10
2018-05-25T15:51:25.527Z,4.80
2018-05-25T15:53:51.909Z,2.93
2018-05-25T15:56:18.313Z,4.23
2018-05-25T15:58:44.652Z,3.07
2018-05-25T16:01:10.988Z,2.93
2018-05-25T16:03:37.312Z,3.00
2018-05-25T16:06:03.651Z,5.73
2018-05-25T16:08:30.001Z,2.90
2018-05-25T16:10:56.335Z,3.17
2018-05-25T16:13:22.713Z,5.23
2018-05-25T16:15:49.044Z,3.37
2018-05-25T16:18:15.451Z,2.50
2018-05-25T16:20:41.798Z,3.07
2018-05-25T16:23:08.208Z,2.30
2018-05-25T16:25:34.569Z,9.90
2018-05-25T16:28:00.903Z,3.50
2018-05-25T16:30:27.286Z,8.10
2018-05-25T16:32:53.652Z,3.60
2018-05-25T16:35:19.990Z,2.60
2018-05-25T16:37:46.331Z,3.40
2018-05-25T16:40:12.672Z,4.43
2018-05-25T16:42:39.083Z,3.93
2018-05-25T16:45:05.446Z,4.20
2018-05-25T16:47:31.777Z,4.07
2018-05-25T16:49:58.107Z,4.97
2018-05-25T16:52:24.425Z,4.23
2018-05-25T16:54:50.803Z,4.33
2018-05-25T16:57:17.184Z,4.20
2018-05-25T16:59:43.545Z,4.60
2018-05-25T17:02:09.892Z,3.80
2018-05-25T17:04:36.272Z,3.87
2018-05-25T17:07:02.612Z,3.37
2018-05-25T17:09:28.967Z,4.80
2018-05-25T17:11:55.361Z,3.73
2018-05-25T17:14:21.712Z,4.40
2018-05-25T17:16:48.084Z,4.17
2018-05-25T17:19:14.497Z,4.40
2018-05-25T17:21:40.870Z,4.40
2018-05-25T17:24:07.207Z,3.60
2018-05-25T17:26:33.589Z,7.00
2018-05-25T17:28:59.988Z,5.43
2018-05-25T17:31:26.391Z,7.40
2018-05-25T17:33:52.747Z,5.23
2018-05-25T17:36:19.094Z,6.10
2018-05-25T17:38:45.468Z,4.90
2018-05-25T17:41:11.813Z,5.20
2018-05-25T17:43:38.192Z,4.87
2018-05-25T17:46:04.506Z,7.73
2018-05-25T17:48:30.883Z,6.33
2018-05-25T17:50:57.228Z,8.50
2018-05-25T17:53:23.548Z,5.17
2018-05-25T17:55:49.925Z,4.97
2018-05-25T17:58:16.318Z,7.10
2018-05-25T18:00:42.692Z,4.57
2018-05-25T18:03:09.121Z,4.80
2018-05-25T18:05:35.509Z,4.90
2018-05-25T18:08:01.853Z,6.17
2018-05-25T18:10:28.197Z,10.93
2018-05-25T18:12:54.566Z,6.83
2018-05-25T18:15:20.892Z,5.97
2018-05-25T18:17:47.216Z,4.47
2018-05-25T18:20:13.640Z,5.00
2018-05-25T18:22:39.960Z,5.10
2018-05-25T18:25:06.304Z,8.27
2018-05-25T18:27:32.692Z,4.80
2018-05-25T18:29:59.086Z,5.23
2018-05-25T18:32:25.420Z,4.70
2018-05-25T18:34:51.794Z,3.80
2018-05-25T18:37:18.126Z,6.40
2018-05-25T18:39:44.505Z,3.93
2018-05-25T18:42:10.870Z,6.30
2018-05-25T18:44:37.228Z,3.90
2018-05-25T18:47:03.570Z,4.13
2018-05-25T18:49:29.916Z,4.33
2018-05-25T18:51:56.254Z,4.20
2018-05-25T18:54:22.637Z,4.40
2018-05-25T18:56:48.982Z,5.00
2018-05-25T18:59:15.355Z,3.43
2018-05-25T19:01:41.682Z,4.23
2018-05-25T19:04:08.057Z,4.33
2018-05-25T19:06:34.386Z,4.50
2018-05-25T19:09:00.732Z,3.70
2018-05-25T19:11:27.123Z,3.73
2018-05-25T19:13:53.449Z,3.83
2018-05-25T19:16:19.786Z,4.03
2018-05-25T19:18:46.117Z,3.93
2018-05-25T19:21:12.463Z,3.77
2018-05-25T19:23:38.799Z,3.50
2018-05-25T19:26:05.178Z,3.63
2018-05-25T19:28:31.568Z,3.60
2018-05-25T19:30:57.958Z,3.53
2018-05-25T19:33:24.328Z,4.10
2018-05-25T19:35:50.691Z,3.50
2018-05-25T19:38:17.043Z,4.60
2018-05-25T19:40:43.402Z,3.50
2018-05-25T19:43:09.780Z,3.50
2018-05-25T19:45:36.125Z,3.03
2018-05-25T19:48:02.448Z,3.80
2018-05-25T19:50:28.828Z,4.20
2018-05-25T19:52:55.202Z,3.33
2018-05-25T19:55:21.532Z,3.70
2018-05-25T19:57:47.867Z,4.60
2018-05-25T20:00:14.204Z,3.77
2018-05-25T20:02:40.562Z,3.27
2018-05-25T20:05:06.908Z,3.50
2018-05-25T20:07:33.284Z,3.47
2018-05-25T20:09:59.656Z,3.67
2018-05-25T20:12:26.010Z,3.50
2018-05-25T20:14:52.353Z,3.10
2018-05-25T20:17:18.669Z,3.13
2018-05-25T20:19:45.005Z,3.47
2018-05-25T20:22:11.323Z,3.63
2018-05-25T20:24:37.642Z,3.57
2018-05-25T20:27:03.972Z,3.90
2018-05-25T20:29:30.313Z,3.47
2018-05-25T20:31:56.636Z,3.17
2018-05-25T20:34:23.032Z,3.53
2018-05-25T20:36:49.360Z,3.30
2018-05-25T20:39:15.696Z,3.27
2018-05-25T20:41:42.018Z,3.30
2018-05-25T20:44:08.380Z,3.07
2018-05-25T20:46:34.722Z,3.43
2018-05-25T20:49:01.108Z,3.47
2018-05-25T20:51:27.445Z,4.17
2018-05-25T20:53:53.808Z,2.70
2018-05-25T20:56:20.131Z,3.20
2018-05-25T20:58:46.468Z,4.83
2018-05-25T21:01:12.845Z,3.07
2018-05-25T21:03:40.215Z,2.93
2018-05-25T21:06:06.586Z,2.87
2018-05-25T21:08:32.948Z,3.30
2018-05-25T21:10:59.344Z,3.30
2018-05-25T21:13:25.656Z,2.93
2018-05-25T21:15:51.972Z,3.00
2018-05-25T21:18:18.336Z,3.50
2018-05-25T21:20:44.695Z,3.60
2018-05-25T21:23:11.012Z,3.30
2018-05-25T21:25:37.368Z,3.30
2018-05-25T21:28:03.726Z,2.90
2018-05-25T21:30:30.103Z,3.23
2018-05-25T21:32:56.418Z,3.87
2018-05-25T21:35:22.743Z,3.00
2018-05-25T21:37:49.155Z,2.60
2018-05-25T21:40:15.488Z,3.40
2018-05-25T21:42:41.826Z,3.47
2018-05-25T21:45:08.150Z,3.93
2018-05-25T21:47:34.508Z,4.00
2018-05-25T21:50:00.839Z,3.07
2018-05-25T21:52:27.192Z,2.63
2018-05-25T21:54:53.533Z,2.90
2018-05-25T21:57:19.850Z,2.80
2018-05-25T21:59:46.242Z,2.80
2018-05-25T22:02:12.572Z,2.87
2018-05-25T22:04:38.915Z,3.00
2018-05-25T22:07:05.253Z,2.90
2018-05-25T22:09:31.591Z,2.90
2018-05-25T22:11:57.908Z,3.30
2018-05-25T22:14:24.231Z,2.90
2018-05-25T22:16:50.601Z,3.30
2018-05-25T22:19:16.909Z,2.90
2018-05-25T22:21:43.260Z,2.73
2018-05-25T22:24:09.628Z,2.87
2018-05-25T22:26:35.955Z,2.93
2018-05-25T22:29:02.292Z,3.50
2018-05-25T22:31:28.622Z,3.10
2018-05-25T22:33:54.991Z,2.70
2018-05-25T22:36:21.311Z,3.10
2018-05-25T22:38:47.742Z,2.90
2018-05-25T22:41:14.112Z,2.87
2018-05-25T22:43:40.438Z,2.97
2018-05-25T22:46:06.798Z,3.00
2018-05-25T22:48:33.197Z,2.97
2018-05-25T22:50:59.518Z,2.90
2018-05-25T22:53:25.830Z,2.70
2018-05-25T22:55:52.167Z,2.33
2018-05-25T22:58:18.552Z,2.50
2018-05-25T23:00:45.000Z,3.17
2018-05-25T23:03:11.358Z,2.60
2018-05-25T23:05:37.692Z,2.80
2018-05-25T23:08:04.016Z,2.80
2018-05-25T23:10:30.364Z,2.33
2018-05-25T23:12:56.687Z,3.10
2018-05-25T23:15:23.025Z,2.70
2018-05-25T23:17:49.356Z,2.60
2018-05-25T23:20:15.685Z,2.53
2018-05-25T23:22:42.007Z,2.90
2018-05-25T23:25:08.328Z,3.03
2018-05-25T23:27:34.657Z,2.30
2018-05-25T23:30:01.009Z,2.80
2018-05-25T23:32:27.328Z,2.97
2018-05-25T23:34:53.651Z,2.43
2018-05-25T23:37:19.988Z,2.70
2018-05-25T23:39:46.323Z,2.80
2018-05-25T23:42:12.655Z,2.83
2018-05-25T23:44:38.986Z,2.60
2018-05-25T23:47:05.303Z,2.93
2018-05-25T23:49:31.667Z,2.73
2018-05-25T23:51:58.018Z,2.77
2018-05-25T23:54:24.350Z,2.80
2018-05-25T23:56:50.708Z,2.60
2018-05-25T23:59:17.078Z,3.00
